sensor_id;sensor_type;location;lat;lon;timestamp;pressure;altitude;pressure_sealevel;temperature;humidity
44697;BME280;57264;47.480;19.354;2024-02-28T00:00:21;98994.59;;;10.23;68.37
44697;BME280;57264;47.480;19.354;2024-02-28T00:02:47;98993.78;;;10.21;68.58
44697;BME280;57264;47.480;19.354;2024-02-28T00:05:12;98987.84;;;10.17;69.29
44697;BME280;57264;47.480;19.354;2024-02-28T00:07:37;98990.59;;;10.14;69.08
44697;BME280;57264;47.480;19.354;2024-02-28T00:10:03;98992.38;;;10.12;68.66
44697;BME280;57264;47.480;19.354;2024-02-28T00:12:28;98988.03;;;10.13;68.76
44697;BME280;57264;47.480;19.354;2024-02-28T00:14:53;98988.94;;;10.12;68.84
44697;BME280;57264;47.480;19.354;2024-02-28T00:17:19;98997.66;;;10.09;69.00
44697;BME280;57264;47.480;19.354;2024-02-28T00:19:44;98994.28;;;10.07;69.10
44697;BME280;57264;47.480;19.354;2024-02-28T00:22:09;98989.13;;;10.05;68.87
44697;BME280;57264;47.480;19.354;2024-02-28T00:24:35;98992.69;;;10.03;68.85
44697;BME280;57264;47.480;19.354;2024-02-28T00:27:00;98996.31;;;9.99;69.42
44697;BME280;57264;47.480;19.354;2024-02-28T00:29:26;98996.41;;;9.96;69.10
44697;BME280;57264;47.480;19.354;2024-02-28T00:31:51;98992.22;;;9.92;69.41
44697;BME280;57264;47.480;19.354;2024-02-28T00:34:17;98993.22;;;9.88;69.63
44697;BME280;57264;47.480;19.354;2024-02-28T00:36:42;98997.59;;;9.85;69.13
44697;BME280;57264;47.480;19.354;2024-02-28T00:39:07;98995.06;;;9.84;68.73
44697;BME280;57264;47.480;19.354;2024-02-28T00:41:33;98990.94;;;9.78;69.27
44697;BME280;57264;47.480;19.354;2024-02-28T00:43:58;98991.97;;;9.73;69.61
44697;BME280;57264;47.480;19.354;2024-02-28T00:46:23;98989.59;;;9.67;69.55
44697;BME280;57264;47.480;19.354;2024-02-28T00:48:49;98998.47;;;9.59;69.91
44697;BME280;57264;47.480;19.354;2024-02-28T00:51:14;98999.56;;;9.52;70.21
44697;BME280;57264;47.480;19.354;2024-02-28T00:53:40;98997.97;;;9.48;70.10
44697;BME280;57264;47.480;19.354;2024-02-28T00:56:06;99008.53;;;9.42;70.39
44697;BME280;57264;47.480;19.354;2024-02-28T00:58:32;99002.75;;;9.34;70.84
44697;BME280;57264;47.480;19.354;2024-02-28T01:00:57;99008.22;;;9.25;71.25
44697;BME280;57264;47.480;19.354;2024-02-28T01:03:22;99015.41;;;9.17;71.33
44697;BME280;57264;47.480;19.354;2024-02-28T01:05:51;99013.09;;;9.07;71.66
44697;BME280;57264;47.480;19.354;2024-02-28T01:08:16;99002.91;;;9.01;72.10
44697;BME280;57264;47.480;19.354;2024-02-28T01:10:45;99011.66;;;8.97;71.96
44697;BME280;57264;47.480;19.354;2024-02-28T01:13:11;99009.91;;;8.98;72.19
44697;BME280;57264;47.480;19.354;2024-02-28T01:15:36;99008.16;;;8.98;72.25
44697;BME280;57264;47.480;19.354;2024-02-28T01:18:01;99005.59;;;8.98;71.91
44697;BME280;57264;47.480;19.354;2024-02-28T01:20:27;99009.97;;;8.96;72.27
44697;BME280;57264;47.480;19.354;2024-02-28T01:22:52;99006.50;;;8.97;72.02
44697;BME280;57264;47.480;19.354;2024-02-28T01:25:18;99015.63;;;9.09;71.23
44697;BME280;57264;47.480;19.354;2024-02-28T01:27:43;99011.88;;;9.19;70.79
44697;BME280;57264;47.480;19.354;2024-02-28T01:30:09;99016.09;;;9.22;70.92
44697;BME280;57264;47.480;19.354;2024-02-28T01:32:34;99018.66;;;9.23;71.01
44697;BME280;57264;47.480;19.354;2024-02-28T01:35:00;99018.59;;;9.25;71.14
44697;BME280;57264;47.480;19.354;2024-02-28T01:37:25;99017.59;;;9.29;70.89
44697;BME280;57264;47.480;19.354;2024-02-28T01:39:50;99020.19;;;9.29;70.56
44697;BME280;57264;47.480;19.354;2024-02-28T01:42:16;99020.13;;;9.32;70.21
44697;BME280;57264;47.480;19.354;2024-02-28T01:44:43;99020.25;;;9.27;70.54
44697;BME280;57264;47.480;19.354;2024-02-28T01:47:10;99015.31;;;9.20;71.49
44697;BME280;57264;47.480;19.354;2024-02-28T01:49:35;99011.06;;;9.17;71.05
44697;BME280;57264;47.480;19.354;2024-02-28T01:52:00;99016.38;;;9.13;71.12
44697;BME280;57264;47.480;19.354;2024-02-28T01:54:27;99025.22;;;9.07;71.90
44697;BME280;57264;47.480;19.354;2024-02-28T01:56:52;99020.06;;;9.05;71.32
44697;BME280;57264;47.480;19.354;2024-02-28T01:59:18;99023.69;;;9.00;71.94
44697;BME280;57264;47.480;19.354;2024-02-28T02:01:44;99025.44;;;8.99;71.78
44697;BME280;57264;47.480;19.354;2024-02-28T02:04:09;99020.34;;;8.96;71.69
44697;BME280;57264;47.480;19.354;2024-02-28T02:06:36;99020.47;;;8.92;71.71
44697;BME280;57264;47.480;19.354;2024-02-28T02:09:02;99023.91;;;8.92;71.79
44697;BME280;57264;47.480;19.354;2024-02-28T02:11:28;99015.38;;;8.89;71.72
44697;BME280;57264;47.480;19.354;2024-02-28T02:13:53;99018.91;;;8.86;71.77
44697;BME280;57264;47.480;19.354;2024-02-28T02:16:19;99026.88;;;8.80;71.82
44697;BME280;57264;47.480;19.354;2024-02-28T02:18:51;99020.97;;;8.75;72.14
44697;BME280;57264;47.480;19.354;2024-02-28T02:21:17;99022.84;;;8.70;72.13
44697;BME280;57264;47.480;19.354;2024-02-28T02:23:43;99023.81;;;8.66;72.22
44697;BME280;57264;47.480;19.354;2024-02-28T02:26:08;99028.31;;;8.59;71.90
44697;BME280;57264;47.480;19.354;2024-02-28T02:28:34;99032.75;;;8.55;71.92
44697;BME280;57264;47.480;19.354;2024-02-28T02:30:59;99034.44;;;8.56;71.93
44697;BME280;57264;47.480;19.354;2024-02-28T02:33:25;99038.66;;;8.59;71.78
44697;BME280;57264;47.480;19.354;2024-02-28T02:35:51;99041.25;;;8.59;71.69
44697;BME280;57264;47.480;19.354;2024-02-28T02:38:17;99035.09;;;8.63;71.59
44697;BME280;57264;47.480;19.354;2024-02-28T02:40:42;99034.25;;;8.62;71.18
44697;BME280;57264;47.480;19.354;2024-02-28T02:43:07;99037.66;;;8.65;70.96
44697;BME280;57264;47.480;19.354;2024-02-28T02:45:33;99047.94;;;8.68;71.38
44697;BME280;57264;47.480;19.354;2024-02-28T02:47:58;99038.34;;;8.71;70.64
44697;BME280;57264;47.480;19.354;2024-02-28T02:50:23;99046.84;;;8.76;70.50
44697;BME280;57264;47.480;19.354;2024-02-28T02:52:49;99043.28;;;8.79;70.40
44697;BME280;57264;47.480;19.354;2024-02-28T02:55:14;99042.34;;;8.81;70.29
44697;BME280;57264;47.480;19.354;2024-02-28T02:57:40;99046.69;;;8.81;70.47
44697;BME280;57264;47.480;19.354;2024-02-28T03:00:07;99044.94;;;8.81;70.29
44697;BME280;57264;47.480;19.354;2024-02-28T03:02:34;99044.94;;;8.81;70.33
44697;BME280;57264;47.480;19.354;2024-02-28T03:04:59;99048.38;;;8.82;70.36
44697;BME280;57264;47.480;19.354;2024-02-28T03:07:24;99053.53;;;8.83;70.03
44697;BME280;57264;47.480;19.354;2024-02-28T03:09:50;99054.38;;;8.84;70.41
44697;BME280;57264;47.480;19.354;2024-02-28T03:12:15;99055.22;;;8.84;70.43
44697;BME280;57264;47.480;19.354;2024-02-28T03:14:41;99054.34;;;8.85;70.33
44697;BME280;57264;47.480;19.354;2024-02-28T03:17:06;99059.50;;;8.85;70.13
44697;BME280;57264;47.480;19.354;2024-02-28T03:19:31;99052.56;;;8.88;70.07
44697;BME280;57264;47.480;19.354;2024-02-28T03:21:57;99053.41;;;8.88;69.84
44697;BME280;57264;47.480;19.354;2024-02-28T03:24:22;99060.28;;;8.89;70.37
44697;BME280;57264;47.480;19.354;2024-02-28T03:26:48;99064.53;;;8.92;70.03
44697;BME280;57264;47.480;19.354;2024-02-28T03:29:13;99067.00;;;8.95;69.96
44697;BME280;57264;47.480;19.354;2024-02-28T03:31:38;99057.47;;;8.97;69.52
44697;BME280;57264;47.480;19.354;2024-02-28T03:34:04;99066.94;;;8.98;69.44
44697;BME280;57264;47.480;19.354;2024-02-28T03:36:29;99062.66;;;8.97;69.45
44697;BME280;57264;47.480;19.354;2024-02-28T03:38:55;99060.94;;;8.96;69.25
44697;BME280;57264;47.480;19.354;2024-02-28T03:41:21;99055.78;;;8.94;69.50
44697;BME280;57264;47.480;19.354;2024-02-28T03:43:47;99061.88;;;8.93;69.77
44697;BME280;57264;47.480;19.354;2024-02-28T03:46:12;99061.03;;;8.93;69.61
44697;BME280;57264;47.480;19.354;2024-02-28T03:48:38;99059.34;;;8.92;69.85
44697;BME280;57264;47.480;19.354;2024-02-28T03:51:03;99060.22;;;8.91;69.77
44697;BME280;57264;47.480;19.354;2024-02-28T03:53:29;99062.88;;;8.89;69.76
44697;BME280;57264;47.480;19.354;2024-02-28T03:55:54;99060.34;;;8.88;70.07
44697;BME280;57264;47.480;19.354;2024-02-28T03:58:20;99062.16;;;8.84;70.23
44697;BME280;57264;47.480;19.354;2024-02-28T04:00:45;99065.72;;;8.80;70.76
44697;BME280;57264;47.480;19.354;2024-02-28T04:03:11;99066.66;;;8.77;70.79
44697;BME280;57264;47.480;19.354;2024-02-28T04:05:36;99070.16;;;8.76;70.44
44697;BME280;57264;47.480;19.354;2024-02-28T04:08:02;99071.91;;;8.74;70.70
44697;BME280;57264;47.480;19.354;2024-02-28T04:10:27;99066.03;;;8.69;70.83
44697;BME280;57264;47.480;19.354;2024-02-28T04:12:53;99069.50;;;8.68;70.72
44697;BME280;57264;47.480;19.354;2024-02-28T04:15:18;99067.78;;;8.69;70.65
44697;BME280;57264;47.480;19.354;2024-02-28T04:17:43;99079.81;;;8.70;70.66
44697;BME280;57264;47.480;19.354;2024-02-28T04:20:12;99080.66;;;8.70;70.74
44697;BME280;57264;47.480;19.354;2024-02-28T04:22:37;99082.41;;;8.70;71.03
44697;BME280;57264;47.480;19.354;2024-02-28T04:25:07;99092.06;;;8.65;70.75
44697;BME280;57264;47.480;19.354;2024-02-28T04:27:33;99090.56;;;8.56;71.48
44697;BME280;57264;47.480;19.354;2024-02-28T04:29:58;99085.53;;;8.50;71.85
44697;BME280;57264;47.480;19.354;2024-02-28T04:32:24;99087.53;;;8.40;71.72
44697;BME280;57264;47.480;19.354;2024-02-28T04:34:50;99089.31;;;8.38;72.01
44697;BME280;57264;47.480;19.354;2024-02-28T04:37:15;99086.81;;;8.33;72.37
44697;BME280;57264;47.480;19.354;2024-02-28T04:39:40;99095.47;;;8.32;72.11
44697;BME280;57264;47.480;19.354;2024-02-28T04:42:06;99088.50;;;8.34;72.09
44697;BME280;57264;47.480;19.354;2024-02-28T04:44:31;99086.72;;;8.38;71.80
44697;BME280;57264;47.480;19.354;2024-02-28T04:46:57;99094.47;;;8.38;71.97
44697;BME280;57264;47.480;19.354;2024-02-28T04:49:22;99087.63;;;8.37;72.12
44697;BME280;57264;47.480;19.354;2024-02-28T04:51:48;99095.41;;;8.35;71.89
44697;BME280;57264;47.480;19.354;2024-02-28T04:54:13;99098.00;;;8.34;72.06
44697;BME280;57264;47.480;19.354;2024-02-28T04:56:42;99098.91;;;8.33;72.03
44697;BME280;57264;47.480;19.354;2024-02-28T04:59:08;99104.88;;;8.35;71.57
44697;BME280;57264;47.480;19.354;2024-02-28T05:01:33;99104.97;;;8.32;72.40
44697;BME280;57264;47.480;19.354;2024-02-28T05:04:00;99106.75;;;8.30;72.19
44697;BME280;57264;47.480;19.354;2024-02-28T05:06:25;99099.94;;;8.26;72.13
44697;BME280;57264;47.480;19.354;2024-02-28T05:08:51;99098.25;;;8.25;71.84
44697;BME280;57264;47.480;19.354;2024-02-28T05:11:16;99092.25;;;8.24;71.57
44697;BME280;57264;47.480;19.354;2024-02-28T05:13:41;99092.25;;;8.23;71.66
44697;BME280;57264;47.480;19.354;2024-02-28T05:16:14;99090.50;;;8.23;71.77
44697;BME280;57264;47.480;19.354;2024-02-28T05:18:39;99088.88;;;8.21;72.31
44697;BME280;57264;47.480;19.354;2024-02-28T05:21:05;99097.59;;;8.17;72.20
44697;BME280;57264;47.480;19.354;2024-02-28T05:23:30;99099.38;;;8.14;72.92
44697;BME280;57264;47.480;19.354;2024-02-28T05:25:56;99103.75;;;8.12;72.56
44697;BME280;57264;47.480;19.354;2024-02-28T05:28:22;99107.19;;;8.13;72.73
44697;BME280;57264;47.480;19.354;2024-02-28T05:30:48;99118.38;;;8.13;72.71
44697;BME280;57264;47.480;19.354;2024-02-28T05:33:13;99120.13;;;8.11;73.05
44697;BME280;57264;47.480;19.354;2024-02-28T05:35:38;99115.94;;;8.07;72.69
44697;BME280;57264;47.480;19.354;2024-02-28T05:38:04;99120.25;;;8.07;73.13
44697;BME280;57264;47.480;19.354;2024-02-28T05:40:29;99128.91;;;8.06;73.64
44697;BME280;57264;47.480;19.354;2024-02-28T05:42:54;99135.00;;;8.05;73.36
44697;BME280;57264;47.480;19.354;2024-02-28T05:45:20;99128.97;;;8.03;73.69
44697;BME280;57264;47.480;19.354;2024-02-28T05:47:45;99133.44;;;7.98;74.33
44697;BME280;57264;47.480;19.354;2024-02-28T05:50:10;99139.19;;;8.09;73.23
44697;BME280;57264;47.480;19.354;2024-02-28T05:52:36;99137.53;;;8.06;73.62
44697;BME280;57264;47.480;19.354;2024-02-28T05:55:01;99138.72;;;7.93;74.10
44697;BME280;57264;47.480;19.354;2024-02-28T05:57:27;99140.41;;;7.94;74.50
44697;BME280;57264;47.480;19.354;2024-02-28T05:59:53;99132.50;;;8.00;74.25
44697;BME280;57264;47.480;19.354;2024-02-28T06:02:18;99129.69;;;8.09;73.84
44697;BME280;57264;47.480;19.354;2024-02-28T06:04:43;99131.44;;;8.07;73.74
44697;BME280;57264;47.480;19.354;2024-02-28T06:07:09;99136.72;;;8.04;73.44
44697;BME280;57264;47.480;19.354;2024-02-28T06:09:34;99137.56;;;8.05;73.53
44697;BME280;57264;47.480;19.354;2024-02-28T06:12:00;99152.03;;;8.13;73.31
44697;BME280;57264;47.480;19.354;2024-02-28T06:14:26;99163.16;;;8.16;73.07
44697;BME280;57264;47.480;19.354;2024-02-28T06:16:52;99165.97;;;8.06;73.57
44697;BME280;57264;47.480;19.354;2024-02-28T06:19:17;99171.22;;;8.03;73.69
44697;BME280;57264;47.480;19.354;2024-02-28T06:21:43;99159.97;;;8.06;73.98
44697;BME280;57264;47.480;19.354;2024-02-28T06:24:08;99163.25;;;8.12;73.78
44697;BME280;57264;47.480;19.354;2024-02-28T06:26:33;99169.84;;;8.26;73.45
44697;BME280;57264;47.480;19.354;2024-02-28T06:28:59;99163.69;;;8.30;73.32
44697;BME280;57264;47.480;19.354;2024-02-28T06:31:27;99162.69;;;8.35;72.90
44697;BME280;57264;47.480;19.354;2024-02-28T06:33:55;99171.22;;;8.41;72.95
44697;BME280;57264;47.480;19.354;2024-02-28T06:36:20;99164.13;;;8.49;72.83
44697;BME280;57264;47.480;19.354;2024-02-28T06:38:46;99163.28;;;8.48;72.70
44697;BME280;57264;47.480;19.354;2024-02-28T06:41:11;99164.84;;;8.54;72.65
44697;BME280;57264;47.480;19.354;2024-02-28T06:43:36;99167.47;;;8.52;72.63
44697;BME280;57264;47.480;19.354;2024-02-28T06:46:02;99171.63;;;8.59;71.71
44697;BME280;57264;47.480;19.354;2024-02-28T06:48:28;99177.63;;;8.60;72.57
44697;BME280;57264;47.480;19.354;2024-02-28T06:50:54;99170.97;;;8.50;72.74
44697;BME280;57264;47.480;19.354;2024-02-28T06:53:19;99171.75;;;8.53;72.68
44697;BME280;57264;47.480;19.354;2024-02-28T06:55:44;99168.50;;;8.45;73.01
44697;BME280;57264;47.480;19.354;2024-02-28T06:58:10;99172.16;;;8.36;72.88
44697;BME280;57264;47.480;19.354;2024-02-28T07:00:36;99161.53;;;8.47;72.98
44697;BME280;57264;47.480;19.354;2024-02-28T07:03:01;99179.28;;;8.28;72.82
44697;BME280;57264;47.480;19.354;2024-02-28T07:05:26;99176.94;;;8.18;73.53
44697;BME280;57264;47.480;19.354;2024-02-28T07:07:52;99177.06;;;8.11;73.84
44697;BME280;57264;47.480;19.354;2024-02-28T07:10:17;99181.38;;;8.12;73.76
44697;BME280;57264;47.480;19.354;2024-02-28T07:12:42;99186.56;;;8.12;73.48
44697;BME280;57264;47.480;19.354;2024-02-28T07:15:08;99182.34;;;8.08;73.42
44697;BME280;57264;47.480;19.354;2024-02-28T07:17:33;99189.03;;;8.16;73.54
44697;BME280;57264;47.480;19.354;2024-02-28T07:19:58;99188.69;;;8.31;73.41
44697;BME280;57264;47.480;19.354;2024-02-28T07:22:24;99190.25;;;8.38;72.92
44697;BME280;57264;47.480;19.354;2024-02-28T07:24:50;99205.50;;;8.50;72.60
44697;BME280;57264;47.480;19.354;2024-02-28T07:27:15;99199.94;;;8.66;72.51
44697;BME280;57264;47.480;19.354;2024-02-28T07:29:41;99204.13;;;8.71;71.76
44697;BME280;57264;47.480;19.354;2024-02-28T07:32:06;99203.88;;;8.79;71.45
44697;BME280;57264;47.480;19.354;2024-02-28T07:34:32;99210.63;;;8.86;71.20
44697;BME280;57264;47.480;19.354;2024-02-28T07:36:57;99218.13;;;8.97;70.60
44697;BME280;57264;47.480;19.354;2024-02-28T07:39:22;99213.13;;;8.89;70.64
44697;BME280;57264;47.480;19.354;2024-02-28T07:41:49;99214.25;;;8.79;71.06
44697;BME280;57264;47.480;19.354;2024-02-28T07:44:16;99219.28;;;8.85;71.20
44697;BME280;57264;47.480;19.354;2024-02-28T07:46:41;99223.25;;;8.98;70.40
44697;BME280;57264;47.480;19.354;2024-02-28T07:49:07;99221.41;;;9.02;70.47
44697;BME280;57264;47.480;19.354;2024-02-28T07:51:32;99228.91;;;9.13;69.99
44697;BME280;57264;47.480;19.354;2024-02-28T07:53:58;99238.81;;;9.29;69.91
44697;BME280;57264;47.480;19.354;2024-02-28T07:56:24;99232.72;;;9.32;69.07
44697;BME280;57264;47.480;19.354;2024-02-28T07:58:49;99236.16;;;9.32;68.91
44697;BME280;57264;47.480;19.354;2024-02-28T08:01:14;99234.69;;;9.53;69.07
44697;BME280;57264;47.480;19.354;2024-02-28T08:03:42;99232.25;;;9.78;69.14
44697;BME280;57264;47.480;19.354;2024-02-28T08:06:07;99228.13;;;9.99;68.38
44697;BME280;57264;47.480;19.354;2024-02-28T08:08:34;99227.69;;;10.13;66.90
44697;BME280;57264;47.480;19.354;2024-02-28T08:11:00;99231.06;;;10.17;67.01
44697;BME280;57264;47.480;19.354;2024-02-28T08:13:25;99240.59;;;10.44;67.40
44697;BME280;57264;47.480;19.354;2024-02-28T08:15:53;99245.63;;;10.75;66.74
44697;BME280;57264;47.480;19.354;2024-02-28T08:18:19;99242.91;;;11.05;65.88
44697;BME280;57264;47.480;19.354;2024-02-28T08:20:44;99239.59;;;11.25;64.51
44697;BME280;57264;47.480;19.354;2024-02-28T08:23:10;99243.69;;;11.55;64.16
44697;BME280;57264;47.480;19.354;2024-02-28T08:25:35;99238.09;;;11.90;62.93
44697;BME280;57264;47.480;19.354;2024-02-28T08:28:00;99234.94;;;12.03;61.93
44697;BME280;57264;47.480;19.354;2024-02-28T08:30:26;99238.84;;;12.37;61.20
44697;BME280;57264;47.480;19.354;2024-02-28T08:32:51;99241.16;;;12.45;60.91
44697;BME280;57264;47.480;19.354;2024-02-28T08:35:17;99242.63;;;12.72;61.59
44697;BME280;57264;47.480;19.354;2024-02-28T08:37:43;99238.78;;;13.01;60.39
44697;BME280;57264;47.480;19.354;2024-02-28T08:40:09;99243.88;;;13.25;59.38
44697;BME280;57264;47.480;19.354;2024-02-28T08:42:35;99239.25;;;13.32;57.80
44697;BME280;57264;47.480;19.354;2024-02-28T08:45:00;99239.22;;;13.52;58.49
44697;BME280;57264;47.480;19.354;2024-02-28T08:47:26;99240.84;;;13.55;58.23
44697;BME280;57264;47.480;19.354;2024-02-28T08:49:52;99236.72;;;13.49;58.46
44697;BME280;57264;47.480;19.354;2024-02-28T08:52:17;99245.41;;;13.49;58.25
44697;BME280;57264;47.480;19.354;2024-02-28T08:54:42;99238.56;;;13.47;58.97
44697;BME280;57264;47.480;19.354;2024-02-28T08:57:08;99243.41;;;13.36;59.60
44697;BME280;57264;47.480;19.354;2024-02-28T08:59:33;99238.97;;;13.38;59.37
44697;BME280;57264;47.480;19.354;2024-02-28T09:01:59;99241.09;;;13.48;58.94
44697;BME280;57264;47.480;19.354;2024-02-28T09:04:24;99239.56;;;13.44;59.26
44697;BME280;57264;47.480;19.354;2024-02-28T09:06:49;99244.00;;;13.42;59.91
44697;BME280;57264;47.480;19.354;2024-02-28T09:09:15;99237.53;;;13.51;59.31
44697;BME280;57264;47.480;19.354;2024-02-28T09:11:40;99242.63;;;13.34;59.09
44697;BME280;57264;47.480;19.354;2024-02-28T09:14:05;99256.06;;;13.45;59.06
44697;BME280;57264;47.480;19.354;2024-02-28T09:16:30;99257.22;;;13.38;59.23
44697;BME280;57264;47.480;19.354;2024-02-28T09:18:56;99250.41;;;13.35;59.54
44697;BME280;57264;47.480;19.354;2024-02-28T09:21:21;99259.06;;;13.36;59.09
44697;BME280;57264;47.480;19.354;2024-02-28T09:23:46;99255.75;;;13.32;59.02
44697;BME280;57264;47.480;19.354;2024-02-28T09:26:12;99246.78;;;13.77;58.50
44697;BME280;57264;47.480;19.354;2024-02-28T09:28:37;99256.94;;;14.02;57.62
44697;BME280;57264;47.480;19.354;2024-02-28T09:31:03;99258.75;;;14.19;56.85
44697;BME280;57264;47.480;19.354;2024-02-28T09:33:29;99257.00;;;14.19;57.78
44697;BME280;57264;47.480;19.354;2024-02-28T09:35:54;99259.22;;;14.10;58.03
44697;BME280;57264;47.480;19.354;2024-02-28T09:38:19;99262.19;;;14.02;56.44
44697;BME280;57264;47.480;19.354;2024-02-28T09:40:45;99259.31;;;13.69;58.17
44697;BME280;57264;47.480;19.354;2024-02-28T09:43:11;99261.94;;;13.69;58.86
44697;BME280;57264;47.480;19.354;2024-02-28T09:45:40;99266.41;;;13.67;57.69
44697;BME280;57264;47.480;19.354;2024-02-28T09:48:06;99260.34;;;13.66;58.07
44697;BME280;57264;47.480;19.354;2024-02-28T09:50:32;99256.59;;;13.72;58.67
44697;BME280;57264;47.480;19.354;2024-02-28T09:52:57;99251.59;;;13.86;58.42
44697;BME280;57264;47.480;19.354;2024-02-28T09:55:22;99253.75;;;13.76;57.43
44697;BME280;57264;47.480;19.354;2024-02-28T09:57:48;99247.97;;;13.70;58.38
44697;BME280;57264;47.480;19.354;2024-02-28T10:00:14;99247.34;;;13.84;58.86
44697;BME280;57264;47.480;19.354;2024-02-28T10:02:41;99251.59;;;13.86;58.13
44697;BME280;57264;47.480;19.354;2024-02-28T10:05:08;99254.81;;;13.91;58.15
44697;BME280;57264;47.480;19.354;2024-02-28T10:07:33;99247.91;;;13.71;58.54
44697;BME280;57264;47.480;19.354;2024-02-28T10:09:59;99266.53;;;13.64;58.62
44697;BME280;57264;47.480;19.354;2024-02-28T10:12:24;99257.50;;;13.71;59.06
44697;BME280;57264;47.480;19.354;2024-02-28T10:14:50;99253.41;;;13.84;57.69
44697;BME280;57264;47.480;19.354;2024-02-28T10:17:16;99262.59;;;13.93;58.80
44697;BME280;57264;47.480;19.354;2024-02-28T10:19:41;99267.22;;;14.05;58.85
44697;BME280;57264;47.480;19.354;2024-02-28T10:22:07;99265.97;;;14.14;57.32
44697;BME280;57264;47.480;19.354;2024-02-28T10:24:33;99275.06;;;14.24;57.73
44697;BME280;57264;47.480;19.354;2024-02-28T10:27:00;99266.53;;;14.20;56.82
44697;BME280;57264;47.480;19.354;2024-02-28T10:29:25;99271.41;;;14.09;56.18
44697;BME280;57264;47.480;19.354;2024-02-28T10:31:54;99274.88;;;14.10;57.99
44697;BME280;57264;47.480;19.354;2024-02-28T10:34:20;99273.16;;;14.09;56.83
44697;BME280;57264;47.480;19.354;2024-02-28T10:36:45;99276.84;;;14.05;57.56
44697;BME280;57264;47.480;19.354;2024-02-28T10:39:11;99272.41;;;14.07;58.16
44697;BME280;57264;47.480;19.354;2024-02-28T10:41:40;99272.06;;;13.95;57.71
44697;BME280;57264;47.480;19.354;2024-02-28T10:44:05;99269.16;;;13.83;58.31
44697;BME280;57264;47.480;19.354;2024-02-28T10:46:31;99271.84;;;14.00;58.23
44697;BME280;57264;47.480;19.354;2024-02-28T10:48:56;99267.53;;;14.18;57.54
44697;BME280;57264;47.480;19.354;2024-02-28T10:51:25;99268.84;;;14.45;57.77
44697;BME280;57264;47.480;19.354;2024-02-28T10:53:58;99270.13;;;14.73;56.69
44697;BME280;57264;47.480;19.354;2024-02-28T10:56:27;99263.03;;;14.75;56.31
44697;BME280;57264;47.480;19.354;2024-02-28T10:58:53;99263.75;;;14.42;56.80
44697;BME280;57264;47.480;19.354;2024-02-28T11:01:21;99263.19;;;14.36;57.52
44697;BME280;57264;47.480;19.354;2024-02-28T11:03:48;99260.28;;;14.42;56.62
44697;BME280;57264;47.480;19.354;2024-02-28T11:06:17;99260.50;;;14.37;57.31
44697;BME280;57264;47.480;19.354;2024-02-28T11:08:45;99274.50;;;14.17;58.14
44697;BME280;57264;47.480;19.354;2024-02-28T11:11:13;99264.84;;;14.19;57.88
44697;BME280;57264;47.480;19.354;2024-02-28T11:13:38;99271.47;;;14.26;57.55
44697;BME280;57264;47.480;19.354;2024-02-28T11:16:10;99266.63;;;14.36;57.61
44697;BME280;57264;47.480;19.354;2024-02-28T11:18:36;99274.25;;;14.60;56.86
44697;BME280;57264;47.480;19.354;2024-02-28T11:21:01;99276.13;;;14.75;56.91
44697;BME280;57264;47.480;19.354;2024-02-28T11:23:35;99274.16;;;14.97;55.36
44697;BME280;57264;47.480;19.354;2024-02-28T11:26:02;99270.59;;;14.98;55.27
44697;BME280;57264;47.480;19.354;2024-02-28T11:28:28;99280.13;;;14.82;55.20
44697;BME280;57264;47.480;19.354;2024-02-28T11:30:54;99277.13;;;14.90;55.47
44697;BME280;57264;47.480;19.354;2024-02-28T11:33:19;99271.59;;;15.13;55.02
44697;BME280;57264;47.480;19.354;2024-02-28T11:35:44;99272.16;;;15.36;53.85
44697;BME280;57264;47.480;19.354;2024-02-28T11:38:09;99264.28;;;15.53;54.10
44697;BME280;57264;47.480;19.354;2024-02-28T11:40:37;99265.81;;;15.57;53.94
44697;BME280;57264;47.480;19.354;2024-02-28T11:43:02;99269.94;;;15.45;53.85
44697;BME280;57264;47.480;19.354;2024-02-28T11:45:28;99267.47;;;15.42;54.19
44697;BME280;57264;47.480;19.354;2024-02-28T11:47:55;99271.25;;;15.37;54.80
44697;BME280;57264;47.480;19.354;2024-02-28T11:50:20;99270.88;;;15.44;53.58
44697;BME280;57264;47.480;19.354;2024-02-28T11:52:45;99269.19;;;15.26;53.67
44697;BME280;57264;47.480;19.354;2024-02-28T11:55:11;99260.16;;;15.32;54.06
44697;BME280;57264;47.480;19.354;2024-02-28T11:57:36;99259.66;;;15.08;54.75
44697;BME280;57264;47.480;19.354;2024-02-28T12:00:11;99252.25;;;15.16;55.16
44697;BME280;57264;47.480;19.354;2024-02-28T12:02:39;99253.50;;;15.09;55.43
44697;BME280;57264;47.480;19.354;2024-02-28T12:05:05;99247.78;;;15.00;55.81
44697;BME280;57264;47.480;19.354;2024-02-28T12:07:30;99254.88;;;15.16;56.83
44697;BME280;57264;47.480;19.354;2024-02-28T12:09:56;99254.88;;;15.16;55.37
44697;BME280;57264;47.480;19.354;2024-02-28T12:12:22;99257.81;;;15.10;55.67
44697;BME280;57264;47.480;19.354;2024-02-28T12:14:47;99258.44;;;14.97;56.30
44697;BME280;57264;47.480;19.354;2024-02-28T12:17:14;99246.75;;;15.05;55.95
44697;BME280;57264;47.480;19.354;2024-02-28T12:19:39;99251.66;;;15.11;54.82
44697;BME280;57264;47.480;19.354;2024-02-28T12:22:05;99254.03;;;15.15;55.42
44697;BME280;57264;47.480;19.354;2024-02-28T12:24:30;99252.88;;;15.21;55.21
44697;BME280;57264;47.480;19.354;2024-02-28T12:26:55;99254.41;;;15.25;54.93
44697;BME280;57264;47.480;19.354;2024-02-28T12:29:20;99253.78;;;15.20;55.05
44697;BME280;57264;47.480;19.354;2024-02-28T12:31:46;99251.69;;;15.27;55.47
44697;BME280;57264;47.480;19.354;2024-02-28T12:34:11;99251.47;;;15.31;54.89
44697;BME280;57264;47.480;19.354;2024-02-28T12:36:38;99254.22;;;15.45;55.48
44697;BME280;57264;47.480;19.354;2024-02-28T12:39:04;99251.25;;;15.52;55.21
44697;BME280;57264;47.480;19.354;2024-02-28T12:41:31;99246.97;;;15.50;54.64
44697;BME280;57264;47.480;19.354;2024-02-28T12:43:56;99248.63;;;15.52;54.58
44697;BME280;57264;47.480;19.354;2024-02-28T12:46:22;99244.09;;;15.55;56.25